createdAt,value
2022-08-26T00:00:59.143Z,7.93
2022-08-26T00:03:26.363Z,7.60
2022-08-26T00:05:54.188Z,6.87
2022-08-26T00:08:21.163Z,9.30
2022-08-26T00:10:47.550Z,9.67
2022-08-26T00:13:15.773Z,8.90
2022-08-26T00:15:46.918Z,8.07
2022-08-26T00:18:21.844Z,8.43
2022-08-26T00:20:48.827Z,8.80
2022-08-26T00:23:15.296Z,7.83
2022-08-26T00:25:42.805Z,9.40
2022-08-26T00:28:09.372Z,8.97
2022-08-26T00:30:37.740Z,8.20
2022-08-26T00:33:05.257Z,9.50
2022-08-26T00:35:32.190Z,10.03
2022-08-26T00:38:01.481Z,13.20
2022-08-26T00:40:32.219Z,10.73
2022-08-26T00:42:58.799Z,9.60
2022-08-26T00:45:25.229Z,10.50
2022-08-26T00:47:57.544Z,9.90
2022-08-26T00:50:31.470Z,10.33
2022-08-26T00:53:01.277Z,10.57
2022-08-26T00:55:39.473Z,10.33
2022-08-26T00:58:08.349Z,11.13
2022-08-26T01:00:35.499Z,8.57
2022-08-26T01:03:03.075Z,9.43
2022-08-26T01:05:32.466Z,10.43
2022-08-26T01:07:59.057Z,12.03
2022-08-26T01:10:28.821Z,10.00
2022-08-26T01:13:05.624Z,9.10
2022-08-26T01:15:37.031Z,8.90
2022-08-26T01:18:05.453Z,9.33
2022-08-26T01:20:47.688Z,10.93
2022-08-26T01:23:15.024Z,10.00
2022-08-26T01:25:46.819Z,9.37
2022-08-26T01:28:21.559Z,9.57
2022-08-26T01:30:51.148Z,9.97
2022-08-26T01:33:23.623Z,10.40
2022-08-26T01:35:50.465Z,9.63
2022-08-26T01:38:18.419Z,10.80
2022-08-26T01:40:45.793Z,10.90
2022-08-26T01:43:17.217Z,10.00
2022-08-26T01:45:46.627Z,11.63
2022-08-26T01:48:17.507Z,12.67
2022-08-26T01:50:45.239Z,11.53
2022-08-26T01:53:16.158Z,16.43
2022-08-26T01:55:46.364Z,19.57
2022-08-26T01:58:24.674Z,19.83
2022-08-26T02:00:51.695Z,21.93
2022-08-26T02:03:21.512Z,21.33
2022-08-26T02:05:56.111Z,23.00
2022-08-26T02:08:36.932Z,21.63
2022-08-26T02:11:03.997Z,23.47
2022-08-26T02:13:32.767Z,28.50
2022-08-26T02:16:02.245Z,24.43
2022-08-26T02:18:31.088Z,28.57
2022-08-26T02:20:57.577Z,29.00
2022-08-26T02:23:24.721Z,38.67
2022-08-26T02:26:05.592Z,47.40
2022-08-26T02:28:38.891Z,42.43
2022-08-26T02:31:05.498Z,40.73
2022-08-26T02:33:34.396Z,50.60
2022-08-26T02:36:02.246Z,56.67
2022-08-26T02:38:29.789Z,52.80
2022-08-26T02:40:56.289Z,55.97
2022-08-26T02:43:31.294Z,55.03
2022-08-26T02:46:01.685Z,56.27
2022-08-26T02:48:28.485Z,61.87
2022-08-26T02:50:54.844Z,54.40
2022-08-26T02:53:25.259Z,62.17
2022-08-26T02:55:52.111Z,64.23
2022-08-26T02:58:18.593Z,60.93
2022-08-26T03:00:52.630Z,58.53
2022-08-26T03:03:20.625Z,68.00
2022-08-26T03:05:49.875Z,63.33
2022-08-26T03:08:16.208Z,65.10
2022-08-26T03:10:42.631Z,65.67
2022-08-26T03:13:09.209Z,72.83
2022-08-26T03:15:35.725Z,68.87
2022-08-26T03:18:04.806Z,63.23
2022-08-26T03:20:31.556Z,71.37
2022-08-26T03:22:57.981Z,74.63
2022-08-26T03:25:26.383Z,63.13
2022-08-26T03:27:53.465Z,65.27
2022-08-26T03:30:39.790Z,65.07
2022-08-26T03:33:13.257Z,63.07
2022-08-26T03:35:41.933Z,66.07
2022-08-26T03:38:08.996Z,63.27
2022-08-26T03:40:36.749Z,71.70
2022-08-26T03:43:04.451Z,68.77
2022-08-26T03:45:31.057Z,66.40
2022-08-26T03:47:57.878Z,66.90
2022-08-26T03:50:25.495Z,73.00
2022-08-26T03:52:55.236Z,72.37
2022-08-26T03:55:24.854Z,79.57
2022-08-26T03:57:52.293Z,85.87
2022-08-26T04:00:19.982Z,91.50
2022-08-26T04:02:50.893Z,79.40
2022-08-26T04:05:21.698Z,85.20
2022-08-26T04:07:49.892Z,81.20
2022-08-26T04:10:20.240Z,83.17
2022-08-26T04:12:46.904Z,73.67
2022-08-26T04:15:15.728Z,80.97
2022-08-26T04:17:42.572Z,82.63
2022-08-26T04:20:09.733Z,82.23
2022-08-26T04:22:36.118Z,85.93
2022-08-26T04:25:02.626Z,80.80
2022-08-26T04:27:28.976Z,86.20
2022-08-26T04:29:55.536Z,81.07
2022-08-26T04:32:22.056Z,80.07
2022-08-26T04:34:48.766Z,75.47
2022-08-26T04:37:15.483Z,80.37
2022-08-26T04:39:42.034Z,78.73
2022-08-26T04:42:08.462Z,80.40
2022-08-26T04:44:36.734Z,79.87
2022-08-26T04:47:03.286Z,69.60
2022-08-26T04:49:35.457Z,75.47
2022-08-26T04:52:02.185Z,74.87
2022-08-26T04:54:28.878Z,68.60
2022-08-26T04:56:55.437Z,68.20
2022-08-26T04:59:22.547Z,66.53
2022-08-26T05:01:56.249Z,69.23
2022-08-26T05:04:23.088Z,66.17
2022-08-26T05:06:49.979Z,59.40
2022-08-26T05:09:18.268Z,61.60
2022-08-26T05:11:45.954Z,54.97
2022-08-26T05:14:18.497Z,61.63
2022-08-26T05:16:44.926Z,61.03
2022-08-26T05:19:14.172Z,53.73
2022-08-26T05:21:45.189Z,66.20
2022-08-26T05:24:13.913Z,53.47
2022-08-26T05:26:40.284Z,55.17
2022-08-26T05:29:06.785Z,55.03
2022-08-26T05:31:34.138Z,48.30
2022-08-26T05:34:03.626Z,57.23
2022-08-26T05:36:33.309Z,51.13
2022-08-26T05:39:01.696Z,52.30
2022-08-26T05:41:36.237Z,54.37
2022-08-26T05:44:06.356Z,52.80
2022-08-26T05:46:33.952Z,53.57
2022-08-26T05:49:01.429Z,47.43
2022-08-26T05:51:27.844Z,50.30
2022-08-26T05:53:56.963Z,49.27
2022-08-26T05:56:25.990Z,48.07
2022-08-26T05:58:52.428Z,51.53
2022-08-26T06:01:25.489Z,44.70
2022-08-26T06:03:54.790Z,35.77
2022-08-26T06:06:29.739Z,40.80
2022-08-26T06:08:59.064Z,43.30
2022-08-26T06:11:27.077Z,42.20
2022-08-26T06:13:53.942Z,43.07
2022-08-26T06:16:23.880Z,47.17
2022-08-26T06:18:50.965Z,48.23
2022-08-26T06:21:23.123Z,44.33
2022-08-26T06:24:10.143Z,58.47
2022-08-26T06:26:37.676Z,48.93
2022-08-26T06:29:05.172Z,38.07
2022-08-26T06:31:33.228Z,40.67
2022-08-26T06:34:00.088Z,41.33
2022-08-26T06:36:29.080Z,40.63
2022-08-26T06:38:59.265Z,32.27
2022-08-26T06:41:25.733Z,31.20
2022-08-26T06:43:52.726Z,35.77
2022-08-26T06:46:22.006Z,39.60
2022-08-26T06:48:49.103Z,33.83
2022-08-26T06:51:23.553Z,32.67
2022-08-26T06:53:52.328Z,44.00
2022-08-26T06:56:22.366Z,35.30
2022-08-26T06:58:49.317Z,27.50
2022-08-26T07:01:22.812Z,27.57
2022-08-26T07:03:51.188Z,35.47
2022-08-26T07:06:19.635Z,37.83
2022-08-26T07:08:47.813Z,34.53
2022-08-26T07:11:14.698Z,31.03
2022-08-26T07:13:41.532Z,28.83
2022-08-26T07:16:12.460Z,32.87
2022-08-26T07:18:42.095Z,29.00
2022-08-26T07:21:14.013Z,34.93
2022-08-26T07:23:41.708Z,27.50
2022-08-26T07:26:17.571Z,47.50
2022-08-26T07:28:46.133Z,29.80
2022-08-26T07:31:14.711Z,31.27
2022-08-26T07:33:42.257Z,21.90
2022-08-26T07:36:10.637Z,24.60
2022-08-26T07:38:38.755Z,25.13
2022-08-26T07:41:06.529Z,28.90
2022-08-26T07:43:36.173Z,30.60
2022-08-26T07:46:05.780Z,25.93
2022-08-26T07:48:32.891Z,26.00
2022-08-26T07:51:00.861Z,25.07
2022-08-26T07:53:27.352Z,29.23
2022-08-26T07:55:53.988Z,25.23
2022-08-26T07:58:20.369Z,27.67
2022-08-26T08:00:47.348Z,26.70
2022-08-26T08:03:14.954Z,24.83
2022-08-26T08:05:42.097Z,23.67
2022-08-26T08:08:26.795Z,25.23
2022-08-26T08:10:55.375Z,20.47
2022-08-26T08:13:21.816Z,28.10
2022-08-26T08:15:48.321Z,21.70
2022-08-26T08:18:16.962Z,21.57
2022-08-26T08:20:47.636Z,26.90
2022-08-26T08:23:31.445Z,28.70
2022-08-26T08:26:06.719Z,25.03
2022-08-26T08:28:35.364Z,24.83
2022-08-26T08:31:02.087Z,21.17
2022-08-26T08:33:32.516Z,24.40
2022-08-26T08:36:00.059Z,30.17
2022-08-26T08:38:26.889Z,26.80
2022-08-26T08:40:53.897Z,22.87
2022-08-26T08:43:23.219Z,21.00
2022-08-26T08:45:54.698Z,20.97
2022-08-26T08:48:33.152Z,22.20
2022-08-26T08:51:14.152Z,24.27
2022-08-26T08:53:44.346Z,22.00
2022-08-26T08:56:14.121Z,21.00
2022-08-26T08:58:40.531Z,20.10
2022-08-26T09:01:11.774Z,18.33
2022-08-26T09:03:45.135Z,18.47
2022-08-26T09:06:17.383Z,18.63
2022-08-26T09:08:47.455Z,17.70
2022-08-26T09:11:18.696Z,22.60
2022-08-26T09:13:50.762Z,23.57
2022-08-26T09:16:21.710Z,15.23
2022-08-26T09:19:19.346Z,18.07
2022-08-26T09:21:46.419Z,32.07
2022-08-26T09:24:19.857Z,13.87
2022-08-26T09:26:49.377Z,15.13
2022-08-26T09:32:16.020Z,18.17
2022-08-26T09:35:00.856Z,13.27
2022-08-26T09:37:33.329Z,13.10
2022-08-26T09:40:23.949Z,11.77
2022-08-26T09:43:08.738Z,16.87
2022-08-26T09:45:36.416Z,12.10
2022-08-26T09:48:03.304Z,11.53
2022-08-26T09:50:53.913Z,11.93
2022-08-26T09:53:33.681Z,17.20
2022-08-26T09:56:25.534Z,25.57
2022-08-26T09:58:53.962Z,13.67
2022-08-26T10:01:23.339Z,16.73
2022-08-26T10:03:51.199Z,13.93
2022-08-26T10:06:17.577Z,12.93
2022-08-26T10:08:49.784Z,14.90
2022-08-26T10:11:33.201Z,12.40
2022-08-26T10:14:04.161Z,11.93
2022-08-26T10:16:39.858Z,12.30
2022-08-26T10:19:09.353Z,12.07
2022-08-26T10:21:45.401Z,15.50
2022-08-26T10:24:20.389Z,16.13
2022-08-26T10:26:48.449Z,12.17
2022-08-26T10:29:41.160Z,11.93
2022-08-26T10:32:16.488Z,12.27
2022-08-26T10:34:43.683Z,10.30
2022-08-26T10:37:18.372Z,11.87
2022-08-26T10:39:44.772Z,10.40
2022-08-26T10:42:24.459Z,11.83
2022-08-26T10:44:58.554Z,10.20
2022-08-26T10:47:34.816Z,9.87
2022-08-26T10:50:03.691Z,11.77
2022-08-26T10:52:47.415Z,10.67
2022-08-26T10:55:54.656Z,9.97
2022-08-26T10:58:39.161Z,9.40
2022-08-26T11:01:45.493Z,10.60
2022-08-26T11:04:35.667Z,10.03
2022-08-26T11:07:21.992Z,27.00
2022-08-26T11:09:49.688Z,9.63
2022-08-26T11:12:34.456Z,8.70
2022-08-26T11:15:13.641Z,14.77
2022-08-26T11:17:46.044Z,7.70
2022-08-26T11:20:27.791Z,8.33
2022-08-26T11:22:56.344Z,9.00
2022-08-26T11:25:30.076Z,9.73
2022-08-26T11:27:59.815Z,8.00
2022-08-26T11:30:42.618Z,8.37
2022-08-26T11:33:10.163Z,8.57
2022-08-26T11:35:37.570Z,8.73
2022-08-26T11:38:16.943Z,8.73
2022-08-26T11:40:44.681Z,10.03
2022-08-26T11:43:14.838Z,8.60
2022-08-26T11:46:00.358Z,9.00
2022-08-26T11:48:30.573Z,7.60
2022-08-26T11:50:58.434Z,8.97
2022-08-26T11:53:25.609Z,9.27
2022-08-26T11:55:53.682Z,7.80
2022-08-26T11:58:20.772Z,7.80
2022-08-26T12:00:51.066Z,10.73
2022-08-26T12:03:44.727Z,7.93
2022-08-26T12:06:14.259Z,8.50
2022-08-26T12:08:43.726Z,11.87
2022-08-26T12:11:19.744Z,7.70
2022-08-26T12:13:53.731Z,9.80
2022-08-26T12:16:24.464Z,7.50
2022-08-26T12:18:51.765Z,7.97
2022-08-26T12:21:24.571Z,6.63
2022-08-26T12:23:56.257Z,6.57
2022-08-26T12:26:35.100Z,7.63
2022-08-26T12:29:27.123Z,6.33
2022-08-26T12:32:07.217Z,8.60
2022-08-26T12:34:33.798Z,7.70
2022-08-26T12:39:38.692Z,8.43
2022-08-26T12:42:17.173Z,7.23
2022-08-26T12:44:53.946Z,8.13
2022-08-26T12:47:35.213Z,7.13
2022-08-26T12:50:23.824Z,9.20
2022-08-26T12:53:01.037Z,9.60
2022-08-26T12:55:44.211Z,7.10
2022-08-26T12:58:10.606Z,7.40
2022-08-26T13:00:40.759Z,7.53
2022-08-26T13:03:30.287Z,7.33
2022-08-26T13:06:15.612Z,11.93
2022-08-26T13:08:45.997Z,6.20
2022-08-26T13:11:19.959Z,5.20
2022-08-26T13:13:50.332Z,6.43
2022-08-26T13:16:19.351Z,7.17
2022-08-26T13:18:49.291Z,8.23
2022-08-26T13:21:41.788Z,6.67
2022-08-26T13:24:09.239Z,8.87
2022-08-26T13:26:35.665Z,6.67
2022-08-26T13:29:02.502Z,6.20
2022-08-26T13:31:32.402Z,6.60
2022-08-26T13:34:00.769Z,6.70
2022-08-26T13:36:27.201Z,11.27
2022-08-26T13:38:53.553Z,13.27
2022-08-26T13:41:29.621Z,6.77
2022-08-26T13:43:56.661Z,8.30
2022-08-26T13:46:26.206Z,6.83
2022-08-26T13:48:54.399Z,5.60
2022-08-26T13:51:22.369Z,6.53
2022-08-26T13:53:50.142Z,6.43
2022-08-26T13:56:16.528Z,17.50
2022-08-26T13:58:42.816Z,5.60
2022-08-26T14:01:09.268Z,5.67
2022-08-26T14:03:35.904Z,5.87
2022-08-26T14:06:02.445Z,4.83
2022-08-26T14:08:28.777Z,5.23
2022-08-26T14:10:55.089Z,4.57
2022-08-26T14:13:21.511Z,8.13
2022-08-26T14:15:48.263Z,5.47
2022-08-26T14:18:16.845Z,5.70
2022-08-26T14:20:47.068Z,5.00
2022-08-26T14:23:14.403Z,4.33
2022-08-26T14:25:40.939Z,4.17
2022-08-26T14:28:07.202Z,5.47
2022-08-26T14:30:33.979Z,4.80
2022-08-26T14:33:00.395Z,6.20
2022-08-26T14:35:29.189Z,4.33
2022-08-26T14:37:56.544Z,4.23
2022-08-26T14:40:24.132Z,9.60
2022-08-26T14:42:53.953Z,4.83
2022-08-26T14:45:22.432Z,5.30
2022-08-26T14:47:50.147Z,4.10
2022-08-26T14:50:17.834Z,4.80
2022-08-26T14:53:03.069Z,5.33
2022-08-26T14:55:30.588Z,4.33
2022-08-26T14:57:56.867Z,4.27
2022-08-26T15:00:23.234Z,4.53
2022-08-26T15:02:49.748Z,9.63
2022-08-26T15:05:16.199Z,7.60
2022-08-26T15:07:42.613Z,8.30
2022-08-26T15:10:13.623Z,4.10
2022-08-26T15:12:41.453Z,4.80
2022-08-26T15:15:10.816Z,4.50
2022-08-26T15:17:38.399Z,4.37
2022-08-26T15:20:09.419Z,4.70
2022-08-26T15:22:37.539Z,4.53
2022-08-26T15:25:06.036Z,4.40
2022-08-26T15:27:32.391Z,3.67
2022-08-26T15:29:58.778Z,7.00
2022-08-26T15:32:25.071Z,5.47
2022-08-26T15:34:53.090Z,6.37
2022-08-26T15:37:19.447Z,3.80
2022-08-26T15:39:45.867Z,3.93
2022-08-26T15:42:12.224Z,4.27
2022-08-26T15:44:43.021Z,4.67
2022-08-26T15:47:09.376Z,5.10
2022-08-26T15:49:35.727Z,5.17
2022-08-26T15:52:05.263Z,4.57
2022-08-26T15:54:32.484Z,4.67
2022-08-26T15:57:02.207Z,6.00
2022-08-26T15:59:31.431Z,4.17
2022-08-26T16:02:01.694Z,5.80
2022-08-26T16:04:28.180Z,4.53
2022-08-26T16:06:54.908Z,3.73
2022-08-26T16:09:24.326Z,4.37
2022-08-26T16:11:51.070Z,4.93
2022-08-26T16:14:17.420Z,5.53
2022-08-26T16:16:43.829Z,3.20
2022-08-26T16:19:11.516Z,4.07
2022-08-26T16:21:38.488Z,12.30
2022-08-26T16:24:05.602Z,7.43
2022-08-26T16:26:34.487Z,4.43
2022-08-26T16:29:01.590Z,3.83
2022-08-26T16:31:28.060Z,3.67
2022-08-26T16:33:54.564Z,3.73
2022-08-26T16:36:20.944Z,3.23
2022-08-26T16:38:49.967Z,4.20
2022-08-26T16:41:17.536Z,4.10
2022-08-26T16:43:43.895Z,3.40
2022-08-26T16:46:11.188Z,3.10
2022-08-26T16:48:37.544Z,2.80
2022-08-26T16:51:03.991Z,3.27
2022-08-26T16:53:31.334Z,2.70
2022-08-26T16:55:58.028Z,2.67
2022-08-26T16:58:24.395Z,4.93
2022-08-26T17:00:50.791Z,4.20
2022-08-26T17:03:17.490Z,2.70
2022-08-26T17:05:44.405Z,2.73
2022-08-26T17:08:10.967Z,2.20
2022-08-26T17:10:37.539Z,2.37
2022-08-26T17:13:03.936Z,2.53
2022-08-26T17:15:30.466Z,2.90
2022-08-26T17:17:57.082Z,2.27
2022-08-26T17:20:24.449Z,2.40
2022-08-26T17:22:52.976Z,7.10
2022-08-26T17:25:25.766Z,2.40
2022-08-26T17:27:52.357Z,7.70
2022-08-26T17:30:19.029Z,3.63
2022-08-26T17:32:46.178Z,2.80
2022-08-26T17:35:13.728Z,2.03
2022-08-26T17:37:41.296Z,2.60
2022-08-26T17:40:11.225Z,2.27
2022-08-26T17:42:38.148Z,2.57
2022-08-26T17:45:04.646Z,2.03
2022-08-26T17:47:31.013Z,2.33
2022-08-26T17:49:57.454Z,2.37
2022-08-26T17:52:24.043Z,5.20
2022-08-26T17:54:55.460Z,2.33
2022-08-26T17:57:22.928Z,3.37
2022-08-26T17:59:49.733Z,2.77
2022-08-26T18:02:20.801Z,2.17
2022-08-26T18:04:47.120Z,2.70
2022-08-26T18:07:13.399Z,2.67
2022-08-26T18:09:39.704Z,2.50
2022-08-26T18:12:06.313Z,2.13
2022-08-26T18:14:33.680Z,2.50
2022-08-26T18:17:00.047Z,3.50
2022-08-26T18:19:26.626Z,2.57
2022-08-26T18:21:53.143Z,7.83
2022-08-26T18:24:19.578Z,2.87
2022-08-26T18:26:49.428Z,3.77
2022-08-26T18:29:16.210Z,3.33
2022-08-26T18:31:42.700Z,2.53
2022-08-26T18:34:12.752Z,4.17
2022-08-26T18:36:40.071Z,2.50
2022-08-26T18:39:07.272Z,4.77
2022-08-26T18:41:44.326Z,2.47
2022-08-26T18:44:13.768Z,2.07
2022-08-26T18:46:41.460Z,2.60
2022-08-26T18:49:08.383Z,3.57
2022-08-26T18:51:35.451Z,2.57
2022-08-26T18:54:05.421Z,4.47
2022-08-26T18:56:35.354Z,3.97
2022-08-26T18:59:02.119Z,5.40
2022-08-26T19:01:29.416Z,2.10
2022-08-26T19:03:57.666Z,2.83
2022-08-26T19:06:24.293Z,2.53
2022-08-26T19:08:50.723Z,2.40
2022-08-26T19:11:17.248Z,2.17
2022-08-26T19:13:58.488Z,2.63
2022-08-26T19:16:26.764Z,2.57
2022-08-26T19:18:54.552Z,2.87
2022-08-26T19:21:22.209Z,2.73
2022-08-26T19:23:48.875Z,2.03
2022-08-26T19:26:15.719Z,3.03
2022-08-26T19:28:42.233Z,2.93
2022-08-26T19:31:10.999Z,2.40
2022-08-26T19:33:39.891Z,3.40
2022-08-26T19:36:07.113Z,1.63
2022-08-26T19:38:35.117Z,2.77
2022-08-26T19:41:01.455Z,2.37
2022-08-26T19:43:28.152Z,2.43
2022-08-26T19:45:58.802Z,2.00
2022-08-26T19:48:25.233Z,2.17
2022-08-26T19:50:51.596Z,2.10
2022-08-26T19:53:19.319Z,1.80
2022-08-26T19:55:45.612Z,3.23
2022-08-26T19:58:12.085Z,2.20
2022-08-26T20:00:39.627Z,2.30
2022-08-26T20:03:06.637Z,3.13
2022-08-26T20:05:36.958Z,1.87
2022-08-26T20:08:03.741Z,3.10
2022-08-26T20:10:30.165Z,3.90
2022-08-26T20:12:56.858Z,2.40
2022-08-26T20:15:23.215Z,2.23
2022-08-26T20:17:49.757Z,2.33
2022-08-26T20:20:34.598Z,2.67
2022-08-26T20:23:04.252Z,3.97
2022-08-26T20:25:32.509Z,3.53
2022-08-26T20:27:59.572Z,3.13
2022-08-26T20:30:25.963Z,2.57
2022-08-26T20:32:52.747Z,3.20
2022-08-26T20:35:19.182Z,7.13
2022-08-26T20:37:45.805Z,3.23
2022-08-26T20:40:14.243Z,2.23
2022-08-26T20:42:40.670Z,3.07
2022-08-26T20:45:07.846Z,4.07
2022-08-26T20:47:34.334Z,3.27
2022-08-26T20:50:00.996Z,2.90
2022-08-26T20:52:27.401Z,10.60
2022-08-26T20:54:53.811Z,2.60
2022-08-26T20:57:22.116Z,3.30
2022-08-26T20:59:48.997Z,2.73
2022-08-26T21:02:15.471Z,2.70
2022-08-26T21:04:41.852Z,3.07
2022-08-26T21:07:08.203Z,4.47
2022-08-26T21:09:34.578Z,3.80
2022-08-26T21:12:01.317Z,3.07
2022-08-26T21:14:27.794Z,3.33
2022-08-26T21:16:54.186Z,5.43
2022-08-26T21:19:20.674Z,3.80
2022-08-26T21:21:47.716Z,3.47
2022-08-26T21:24:14.400Z,3.17
2022-08-26T21:26:41.376Z,3.80
2022-08-26T21:29:09.592Z,2.97
2022-08-26T21:31:36.939Z,2.97
2022-08-26T21:34:03.716Z,3.07
2022-08-26T21:36:30.347Z,2.40
2022-08-26T21:39:00.685Z,2.77
2022-08-26T21:41:27.538Z,3.43
2022-08-26T21:43:59.007Z,2.40
2022-08-26T21:46:26.563Z,3.43
2022-08-26T21:48:59.571Z,3.37
2022-08-26T21:51:29.313Z,3.73
2022-08-26T21:53:57.409Z,2.77
2022-08-26T21:56:26.198Z,3.37
2022-08-26T21:58:53.568Z,2.80
2022-08-26T22:01:22.152Z,3.07
2022-08-26T22:03:49.822Z,3.57
2022-08-26T22:06:17.325Z,2.70
2022-08-26T22:08:43.648Z,3.50
2022-08-26T22:11:10.290Z,3.27
2022-08-26T22:13:37.945Z,3.60
2022-08-26T22:16:05.498Z,3.63
2022-08-26T22:18:32.210Z,3.17
2022-08-26T22:21:02.027Z,3.20
2022-08-26T22:23:28.989Z,2.57
2022-08-26T22:25:55.845Z,2.40
2022-08-26T22:28:22.764Z,2.40
2022-08-26T22:30:49.163Z,3.37
2022-08-26T22:33:16.592Z,4.43
2022-08-26T22:35:46.931Z,3.07
2022-08-26T22:38:13.969Z,4.47
2022-08-26T22:40:44.322Z,2.93
2022-08-26T22:43:10.727Z,3.70
2022-08-26T22:45:41.617Z,2.43
2022-08-26T22:48:09.660Z,4.83
2022-08-26T22:50:36.259Z,6.00
2022-08-26T22:53:02.904Z,2.63
2022-08-26T22:55:29.286Z,2.83
2022-08-26T22:57:55.613Z,3.57
2022-08-26T23:00:21.899Z,3.03
2022-08-26T23:02:58.954Z,3.37
2022-08-26T23:05:25.544Z,6.90
2022-08-26T23:07:51.846Z,3.13
2022-08-26T23:10:18.264Z,6.63
2022-08-26T23:12:44.645Z,3.33
2022-08-26T23:15:12.257Z,4.40
2022-08-26T23:17:39.403Z,3.90
2022-08-26T23:20:08.911Z,3.70
2022-08-26T23:22:35.598Z,3.90
2022-08-26T23:25:02.659Z,3.67
2022-08-26T23:27:36.261Z,6.90
2022-08-26T23:30:05.319Z,3.63
2022-08-26T23:32:31.676Z,6.30
2022-08-26T23:35:00.933Z,6.63
2022-08-26T23:37:41.587Z,3.60
2022-08-26T23:40:14.401Z,4.37
2022-08-26T23:42:40.787Z,4.43
2022-08-26T23:45:10.220Z,3.50
2022-08-26T23:47:36.701Z,3.93
2022-08-26T23:50:04.173Z,4.10
2022-08-26T23:52:49.273Z,3.73
2022-08-26T23:55:16.995Z,4.27
2022-08-26T23:57:43.479Z,4.30
